sensor_id;sensor_type;location;lat;lon;timestamp;P1;durP1;ratioP1;P2;durP2;ratioP2
18280;SDS011;9266;51.132;17.062;2022-08-19T00:01:19;11.38;;;9.80;;
18280;SDS011;9266;51.132;17.062;2022-08-19T00:03:47;11.30;;;10.20;;
18280;SDS011;9266;51.132;17.062;2022-08-19T00:06:15;12.88;;;9.48;;
18280;SDS011;9266;51.132;17.062;2022-08-19T00:08:42;13.25;;;10.60;;
18280;SDS011;9266;51.132;17.062;2022-08-19T00:11:11;11.40;;;10.20;;
18280;SDS011;9266;51.132;17.062;2022-08-19T00:13:38;11.80;;;9.85;;
18280;SDS011;9266;51.132;17.062;2022-08-19T00:16:06;11.05;;;9.93;;
18280;SDS011;9266;51.132;17.062;2022-08-19T00:18:33;11.20;;;10.10;;
18280;SDS011;9266;51.132;17.062;2022-08-19T00:21:01;12.35;;;9.93;;
18280;SDS011;9266;51.132;17.062;2022-08-19T00:23:33;11.98;;;10.13;;
18280;SDS011;9266;51.132;17.062;2022-08-19T00:26:01;11.32;;;10.05;;
18280;SDS011;9266;51.132;17.062;2022-08-19T00:28:30;10.73;;;9.63;;
18280;SDS011;9266;51.132;17.062;2022-08-19T00:30:58;11.18;;;9.60;;
18280;SDS011;9266;51.132;17.062;2022-08-19T00:33:25;11.32;;;10.23;;
18280;SDS011;9266;51.132;17.062;2022-08-19T00:35:52;10.80;;;9.70;;
18280;SDS011;9266;51.132;17.062;2022-08-19T00:38:21;12.00;;;9.70;;
18280;SDS011;9266;51.132;17.062;2022-08-19T00:40:48;10.75;;;9.65;;
18280;SDS011;9266;51.132;17.062;2022-08-19T00:43:18;10.75;;;9.68;;
18280;SDS011;9266;51.132;17.062;2022-08-19T00:45:49;10.15;;;9.15;;
18280;SDS011;9266;51.132;17.062;2022-08-19T00:48:16;10.60;;;9.60;;
18280;SDS011;9266;51.132;17.062;2022-08-19T00:50:45;11.60;;;9.25;;
18280;SDS011;9266;51.132;17.062;2022-08-19T00:53:14;10.43;;;9.30;;
18280;SDS011;9266;51.132;17.062;2022-08-19T00:55:45;10.48;;;9.25;;
18280;SDS011;9266;51.132;17.062;2022-08-19T00:58:14;10.60;;;9.60;;
18280;SDS011;9266;51.132;17.062;2022-08-19T01:00:44;10.85;;;9.75;;
18280;SDS011;9266;51.132;17.062;2022-08-19T01:03:17;14.82;;;9.60;;
18280;SDS011;9266;51.132;17.062;2022-08-19T01:05:46;12.18;;;9.95;;
18280;SDS011;9266;51.132;17.062;2022-08-19T01:08:15;10.73;;;9.70;;
18280;SDS011;9266;51.132;17.062;2022-08-19T01:10:46;13.15;;;9.50;;
18280;SDS011;9266;51.132;17.062;2022-08-19T01:13:16;10.90;;;9.80;;
18280;SDS011;9266;51.132;17.062;2022-08-19T01:15:46;11.53;;;10.30;;
18280;SDS011;9266;51.132;17.062;2022-08-19T01:18:18;10.57;;;9.57;;
18280;SDS011;9266;51.132;17.062;2022-08-19T01:20:46;11.15;;;10.02;;
18280;SDS011;9266;51.132;17.062;2022-08-19T01:23:15;11.02;;;9.75;;
18280;SDS011;9266;51.132;17.062;2022-08-19T01:25:44;10.38;;;9.38;;
18280;SDS011;9266;51.132;17.062;2022-08-19T01:28:15;11.13;;;10.13;;
18280;SDS011;9266;51.132;17.062;2022-08-19T01:30:44;11.90;;;9.87;;
18280;SDS011;9266;51.132;17.062;2022-08-19T01:33:12;10.53;;;9.43;;
18280;SDS011;9266;51.132;17.062;2022-08-19T01:35:39;11.20;;;10.00;;
18280;SDS011;9266;51.132;17.062;2022-08-19T01:38:08;11.53;;;9.93;;
18280;SDS011;9266;51.132;17.062;2022-08-19T01:40:46;11.47;;;10.10;;
18280;SDS011;9266;51.132;17.062;2022-08-19T01:43:13;11.13;;;10.03;;
18280;SDS011;9266;51.132;17.062;2022-08-19T01:45:40;10.57;;;9.57;;
18280;SDS011;9266;51.132;17.062;2022-08-19T01:48:08;12.90;;;10.05;;
18280;SDS011;9266;51.132;17.062;2022-08-19T01:50:36;11.20;;;9.60;;
18280;SDS011;9266;51.132;17.062;2022-08-19T01:53:04;12.57;;;10.13;;
18280;SDS011;9266;51.132;17.062;2022-08-19T01:55:34;11.07;;;9.87;;
18280;SDS011;9266;51.132;17.062;2022-08-19T01:58:04;11.63;;;9.77;;
18280;SDS011;9266;51.132;17.062;2022-08-19T02:00:33;11.30;;;10.17;;
18280;SDS011;9266;51.132;17.062;2022-08-19T02:03:00;10.70;;;9.60;;
18280;SDS011;9266;51.132;17.062;2022-08-19T02:05:27;10.60;;;9.60;;
18280;SDS011;9266;51.132;17.062;2022-08-19T02:07:55;10.40;;;9.37;;
18280;SDS011;9266;51.132;17.062;2022-08-19T02:10:22;10.60;;;9.53;;
18280;SDS011;9266;51.132;17.062;2022-08-19T02:12:50;11.10;;;10.10;;
18280;SDS011;9266;51.132;17.062;2022-08-19T02:15:18;11.27;;;10.03;;
18280;SDS011;9266;51.132;17.062;2022-08-19T02:17:46;12.37;;;9.97;;
18280;SDS011;9266;51.132;17.062;2022-08-19T02:20:14;10.93;;;9.97;;
18280;SDS011;9266;51.132;17.062;2022-08-19T02:22:41;11.00;;;9.97;;
18280;SDS011;9266;51.132;17.062;2022-08-19T02:25:09;12.30;;;10.83;;
18280;SDS011;9266;51.132;17.062;2022-08-19T02:27:36;10.87;;;9.77;;
18280;SDS011;9266;51.132;17.062;2022-08-19T02:30:05;11.03;;;10.03;;
18280;SDS011;9266;51.132;17.062;2022-08-19T02:32:35;13.17;;;10.13;;
18280;SDS011;9266;51.132;17.062;2022-08-19T02:35:02;11.80;;;9.70;;
18280;SDS011;9266;51.132;17.062;2022-08-19T02:37:30;12.03;;;10.73;;
18280;SDS011;9266;51.132;17.062;2022-08-19T02:40:15;12.57;;;11.00;;
18280;SDS011;9266;51.132;17.062;2022-08-19T02:42:43;13.67;;;10.50;;
18280;SDS011;9266;51.132;17.062;2022-08-19T02:45:11;12.70;;;11.40;;
18280;SDS011;9266;51.132;17.062;2022-08-19T02:47:40;13.53;;;10.97;;
18280;SDS011;9266;51.132;17.062;2022-08-19T02:50:07;11.53;;;10.20;;
18280;SDS011;9266;51.132;17.062;2022-08-19T02:52:35;11.40;;;10.20;;
18280;SDS011;9266;51.132;17.062;2022-08-19T02:55:02;12.10;;;10.93;;
18280;SDS011;9266;51.132;17.062;2022-08-19T02:57:31;11.67;;;10.57;;
18280;SDS011;9266;51.132;17.062;2022-08-19T02:59:59;11.33;;;10.23;;
18280;SDS011;9266;51.132;17.062;2022-08-19T03:02:26;12.00;;;10.70;;
18280;SDS011;9266;51.132;17.062;2022-08-19T03:04:54;12.67;;;11.07;;
18280;SDS011;9266;51.132;17.062;2022-08-19T03:07:21;11.90;;;10.70;;
18280;SDS011;9266;51.132;17.062;2022-08-19T03:09:48;11.73;;;10.63;;
18280;SDS011;9266;51.132;17.062;2022-08-19T03:12:15;12.17;;;10.83;;
18280;SDS011;9266;51.132;17.062;2022-08-19T03:14:42;12.70;;;11.43;;
18280;SDS011;9266;51.132;17.062;2022-08-19T03:17:10;12.40;;;11.17;;
18280;SDS011;9266;51.132;17.062;2022-08-19T03:19:37;12.73;;;11.43;;
18280;SDS011;9266;51.132;17.062;2022-08-19T03:22:06;12.50;;;11.20;;
18280;SDS011;9266;51.132;17.062;2022-08-19T03:24:33;13.53;;;11.53;;
18280;SDS011;9266;51.132;17.062;2022-08-19T03:27:00;12.90;;;11.53;;
18280;SDS011;9266;51.132;17.062;2022-08-19T03:29:30;13.40;;;11.90;;
18280;SDS011;9266;51.132;17.062;2022-08-19T03:31:58;14.30;;;12.17;;
18280;SDS011;9266;51.132;17.062;2022-08-19T03:34:28;12.90;;;11.60;;
18280;SDS011;9266;51.132;17.062;2022-08-19T03:36:57;13.70;;;12.40;;
18280;SDS011;9266;51.132;17.062;2022-08-19T03:39:27;13.50;;;12.10;;
18280;SDS011;9266;51.132;17.062;2022-08-19T03:41:54;15.23;;;12.37;;
18280;SDS011;9266;51.132;17.062;2022-08-19T03:44:25;14.33;;;12.03;;
18280;SDS011;9266;51.132;17.062;2022-08-19T03:46:53;13.73;;;12.20;;
18280;SDS011;9266;51.132;17.062;2022-08-19T03:49:22;14.50;;;12.90;;
18280;SDS011;9266;51.132;17.062;2022-08-19T03:51:50;14.27;;;12.17;;
18280;SDS011;9266;51.132;17.062;2022-08-19T03:54:18;15.00;;;12.73;;
18280;SDS011;9266;51.132;17.062;2022-08-19T03:56:50;13.90;;;12.50;;
18280;SDS011;9266;51.132;17.062;2022-08-19T03:59:19;13.80;;;12.50;;
18280;SDS011;9266;51.132;17.062;2022-08-19T04:01:51;14.40;;;12.90;;
18280;SDS011;9266;51.132;17.062;2022-08-19T04:04:18;14.17;;;12.67;;
18280;SDS011;9266;51.132;17.062;2022-08-19T04:06:46;14.00;;;12.40;;
18280;SDS011;9266;51.132;17.062;2022-08-19T04:09:13;13.80;;;12.33;;
18280;SDS011;9266;51.132;17.062;2022-08-19T04:11:41;14.63;;;12.53;;
18280;SDS011;9266;51.132;17.062;2022-08-19T04:14:12;13.77;;;12.37;;
18280;SDS011;9266;51.132;17.062;2022-08-19T04:16:41;14.50;;;12.40;;
18280;SDS011;9266;51.132;17.062;2022-08-19T04:19:09;14.90;;;13.00;;
18280;SDS011;9266;51.132;17.062;2022-08-19T04:21:37;13.17;;;11.97;;
18280;SDS011;9266;51.132;17.062;2022-08-19T04:24:04;13.73;;;12.40;;
18280;SDS011;9266;51.132;17.062;2022-08-19T04:26:32;15.10;;;12.60;;
18280;SDS011;9266;51.132;17.062;2022-08-19T04:29:03;14.00;;;12.57;;
18280;SDS011;9266;51.132;17.062;2022-08-19T04:31:34;13.17;;;11.93;;
18280;SDS011;9266;51.132;17.062;2022-08-19T04:34:03;14.88;;;12.02;;
18280;SDS011;9266;51.132;17.062;2022-08-19T04:36:31;14.77;;;12.98;;
18280;SDS011;9266;51.132;17.062;2022-08-19T04:39:01;14.63;;;12.23;;
18280;SDS011;9266;51.132;17.062;2022-08-19T04:41:30;14.48;;;12.82;;
18280;SDS011;9266;51.132;17.062;2022-08-19T04:44:14;14.02;;;12.60;;
18280;SDS011;9266;51.132;17.062;2022-08-19T04:46:44;16.45;;;12.73;;
18280;SDS011;9266;51.132;17.062;2022-08-19T04:49:12;14.88;;;11.88;;
18280;SDS011;9266;51.132;17.062;2022-08-19T04:51:40;13.68;;;12.02;;
18280;SDS011;9266;51.132;17.062;2022-08-19T04:54:08;16.58;;;12.27;;
18280;SDS011;9266;51.132;17.062;2022-08-19T04:56:35;14.65;;;12.48;;
18280;SDS011;9266;51.132;17.062;2022-08-19T04:59:03;16.52;;;12.82;;
18280;SDS011;9266;51.132;17.062;2022-08-19T05:01:31;15.35;;;12.60;;
18280;SDS011;9266;51.132;17.062;2022-08-19T05:04:00;15.23;;;13.10;;
18280;SDS011;9266;51.132;17.062;2022-08-19T05:06:29;15.93;;;12.93;;
18280;SDS011;9266;51.132;17.062;2022-08-19T05:08:57;15.73;;;13.90;;
18280;SDS011;9266;51.132;17.062;2022-08-19T05:11:26;14.73;;;12.80;;
18280;SDS011;9266;51.132;17.062;2022-08-19T05:13:55;14.00;;;12.55;;
18280;SDS011;9266;51.132;17.062;2022-08-19T05:16:23;15.65;;;13.38;;
18280;SDS011;9266;51.132;17.062;2022-08-19T05:18:51;13.77;;;12.30;;
18280;SDS011;9266;51.132;17.062;2022-08-19T05:21:38;14.27;;;12.93;;
18280;SDS011;9266;51.132;17.062;2022-08-19T05:24:24;14.90;;;12.13;;
18280;SDS011;9266;51.132;17.062;2022-08-19T05:26:52;14.93;;;13.32;;
18280;SDS011;9266;51.132;17.062;2022-08-19T05:29:22;16.27;;;12.98;;
18280;SDS011;9266;51.132;17.062;2022-08-19T05:31:51;13.85;;;12.45;;
18280;SDS011;9266;51.132;17.062;2022-08-19T05:34:19;13.93;;;12.52;;
18280;SDS011;9266;51.132;17.062;2022-08-19T05:36:49;14.45;;;12.23;;
18280;SDS011;9266;51.132;17.062;2022-08-19T05:39:23;16.02;;;13.20;;
18280;SDS011;9266;51.132;17.062;2022-08-19T05:41:52;14.00;;;12.70;;
18280;SDS011;9266;51.132;17.062;2022-08-19T05:44:22;16.65;;;13.55;;
18280;SDS011;9266;51.132;17.062;2022-08-19T05:46:50;15.52;;;12.85;;
18280;SDS011;9266;51.132;17.062;2022-08-19T05:49:20;15.60;;;12.77;;
18280;SDS011;9266;51.132;17.062;2022-08-19T05:51:49;14.55;;;12.95;;
18280;SDS011;9266;51.132;17.062;2022-08-19T05:54:16;14.43;;;12.50;;
18280;SDS011;9266;51.132;17.062;2022-08-19T05:56:44;16.35;;;13.05;;
18280;SDS011;9266;51.132;17.062;2022-08-19T05:59:13;14.10;;;12.45;;
18280;SDS011;9266;51.132;17.062;2022-08-19T06:01:42;15.20;;;13.60;;
18280;SDS011;9266;51.132;17.062;2022-08-19T06:04:11;15.38;;;12.38;;
18280;SDS011;9266;51.132;17.062;2022-08-19T06:06:39;15.38;;;13.73;;
18280;SDS011;9266;51.132;17.062;2022-08-19T06:09:10;14.38;;;12.75;;
18280;SDS011;9266;51.132;17.062;2022-08-19T06:11:38;16.38;;;13.52;;
18280;SDS011;9266;51.132;17.062;2022-08-19T06:14:09;16.85;;;13.98;;
18280;SDS011;9266;51.132;17.062;2022-08-19T06:16:39;15.43;;;13.77;;
18280;SDS011;9266;51.132;17.062;2022-08-19T06:19:11;18.45;;;14.13;;
18280;SDS011;9266;51.132;17.062;2022-08-19T06:21:44;14.65;;;12.60;;
18280;SDS011;9266;51.132;17.062;2022-08-19T06:24:15;14.00;;;12.70;;
18280;SDS011;9266;51.132;17.062;2022-08-19T06:26:47;17.17;;;12.93;;
18280;SDS011;9266;51.132;17.062;2022-08-19T06:29:16;13.73;;;12.40;;
18280;SDS011;9266;51.132;17.062;2022-08-19T06:31:46;15.00;;;13.27;;
18280;SDS011;9266;51.132;17.062;2022-08-19T06:34:16;15.88;;;12.82;;
18280;SDS011;9266;51.132;17.062;2022-08-19T06:36:45;15.95;;;13.23;;
18280;SDS011;9266;51.132;17.062;2022-08-19T06:39:18;15.70;;;12.93;;
18280;SDS011;9266;51.132;17.062;2022-08-19T06:41:49;14.57;;;12.43;;
18280;SDS011;9266;51.132;17.062;2022-08-19T06:44:18;12.93;;;11.32;;
18280;SDS011;9266;51.132;17.062;2022-08-19T06:46:46;14.95;;;11.80;;
18280;SDS011;9266;51.132;17.062;2022-08-19T06:49:14;13.63;;;11.65;;
18280;SDS011;9266;51.132;17.062;2022-08-19T06:51:42;18.55;;;13.07;;
18280;SDS011;9266;51.132;17.062;2022-08-19T06:54:12;14.57;;;12.10;;
18280;SDS011;9266;51.132;17.062;2022-08-19T06:56:42;15.70;;;12.00;;
18280;SDS011;9266;51.132;17.062;2022-08-19T06:59:11;14.85;;;12.25;;
18280;SDS011;9266;51.132;17.062;2022-08-19T07:01:40;14.63;;;11.60;;
18280;SDS011;9266;51.132;17.062;2022-08-19T07:04:12;14.82;;;12.00;;
18280;SDS011;9266;51.132;17.062;2022-08-19T07:06:40;15.20;;;12.20;;
18280;SDS011;9266;51.132;17.062;2022-08-19T07:09:08;14.88;;;11.90;;
18280;SDS011;9266;51.132;17.062;2022-08-19T07:11:41;17.85;;;11.52;;
18280;SDS011;9266;51.132;17.062;2022-08-19T07:14:11;16.52;;;11.00;;
18280;SDS011;9266;51.132;17.062;2022-08-19T07:16:39;14.00;;;10.18;;
18280;SDS011;9266;51.132;17.062;2022-08-19T07:19:06;14.02;;;9.55;;
18280;SDS011;9266;51.132;17.062;2022-08-19T07:21:38;11.15;;;9.77;;
18280;SDS011;9266;51.132;17.062;2022-08-19T07:24:05;10.43;;;9.32;;
18280;SDS011;9266;51.132;17.062;2022-08-19T07:26:33;12.90;;;9.70;;
18280;SDS011;9266;51.132;17.062;2022-08-19T07:29:08;12.52;;;10.00;;
18280;SDS011;9266;51.132;17.062;2022-08-19T07:31:35;11.60;;;9.60;;
18280;SDS011;9266;51.132;17.062;2022-08-19T07:34:04;11.93;;;10.38;;
18280;SDS011;9266;51.132;17.062;2022-08-19T07:36:36;13.52;;;10.13;;
18280;SDS011;9266;51.132;17.062;2022-08-19T07:39:09;13.65;;;8.93;;
18280;SDS011;9266;51.132;17.062;2022-08-19T07:41:40;12.80;;;8.73;;
18280;SDS011;9266;51.132;17.062;2022-08-19T07:44:07;11.52;;;9.40;;
18280;SDS011;9266;51.132;17.062;2022-08-19T07:46:36;12.63;;;9.43;;
18280;SDS011;9266;51.132;17.062;2022-08-19T07:49:06;11.23;;;8.95;;
18280;SDS011;9266;51.132;17.062;2022-08-19T07:51:45;15.43;;;9.43;;
18280;SDS011;9266;51.132;17.062;2022-08-19T07:54:14;9.95;;;8.38;;
18280;SDS011;9266;51.132;17.062;2022-08-19T07:56:44;15.38;;;9.55;;
18280;SDS011;9266;51.132;17.062;2022-08-19T07:59:11;11.73;;;8.73;;
18280;SDS011;9266;51.132;17.062;2022-08-19T08:01:40;10.15;;;8.68;;
18280;SDS011;9266;51.132;17.062;2022-08-19T08:04:07;10.07;;;8.98;;
18280;SDS011;9266;51.132;17.062;2022-08-19T08:06:51;10.77;;;8.95;;
18280;SDS011;9266;51.132;17.062;2022-08-19T08:09:37;15.25;;;8.70;;
18280;SDS011;9266;51.132;17.062;2022-08-19T08:12:08;12.73;;;9.30;;
18280;SDS011;9266;51.132;17.062;2022-08-19T08:14:38;15.10;;;8.80;;
18280;SDS011;9266;51.132;17.062;2022-08-19T08:17:07;14.50;;;9.88;;
18280;SDS011;9266;51.132;17.062;2022-08-19T08:19:36;11.35;;;9.02;;
18280;SDS011;9266;51.132;17.062;2022-08-19T08:22:05;11.38;;;8.85;;
18280;SDS011;9266;51.132;17.062;2022-08-19T08:24:32;10.18;;;8.80;;
18280;SDS011;9266;51.132;17.062;2022-08-19T08:27:02;13.15;;;8.98;;
18280;SDS011;9266;51.132;17.062;2022-08-19T08:29:31;10.63;;;9.50;;
18280;SDS011;9266;51.132;17.062;2022-08-19T08:32:01;10.60;;;8.85;;
18280;SDS011;9266;51.132;17.062;2022-08-19T08:34:30;10.93;;;9.32;;
18280;SDS011;9266;51.132;17.062;2022-08-19T08:37:04;13.80;;;8.40;;
18280;SDS011;9266;51.132;17.062;2022-08-19T08:39:31;13.35;;;7.90;;
18280;SDS011;9266;51.132;17.062;2022-08-19T08:42:07;11.30;;;8.18;;
18280;SDS011;9266;51.132;17.062;2022-08-19T08:44:43;11.23;;;7.97;;
18280;SDS011;9266;51.132;17.062;2022-08-19T08:47:15;11.10;;;8.15;;
18280;SDS011;9266;51.132;17.062;2022-08-19T08:49:47;11.23;;;8.55;;
18280;SDS011;9266;51.132;17.062;2022-08-19T08:52:20;12.27;;;8.45;;
18280;SDS011;9266;51.132;17.062;2022-08-19T08:54:50;14.00;;;8.95;;
18280;SDS011;9266;51.132;17.062;2022-08-19T08:57:21;12.13;;;8.20;;
18280;SDS011;9266;51.132;17.062;2022-08-19T08:59:55;14.77;;;8.35;;
18280;SDS011;9266;51.132;17.062;2022-08-19T09:02:25;11.63;;;8.80;;
18280;SDS011;9266;51.132;17.062;2022-08-19T09:04:53;10.38;;;7.57;;
18280;SDS011;9266;51.132;17.062;2022-08-19T09:07:24;10.88;;;8.73;;
18280;SDS011;9266;51.132;17.062;2022-08-19T09:10:02;12.18;;;9.25;;
18280;SDS011;9266;51.132;17.062;2022-08-19T09:12:39;9.75;;;7.70;;
18280;SDS011;9266;51.132;17.062;2022-08-19T09:15:21;10.15;;;8.00;;
18280;SDS011;9266;51.132;17.062;2022-08-19T09:17:58;10.90;;;8.75;;
18280;SDS011;9266;51.132;17.062;2022-08-19T09:20:27;11.60;;;8.85;;
18280;SDS011;9266;51.132;17.062;2022-08-19T09:22:54;9.82;;;8.10;;
18280;SDS011;9266;51.132;17.062;2022-08-19T09:25:22;12.27;;;8.50;;
18280;SDS011;9266;51.132;17.062;2022-08-19T09:27:51;12.40;;;8.73;;
18280;SDS011;9266;51.132;17.062;2022-08-19T09:30:22;13.85;;;9.23;;
18280;SDS011;9266;51.132;17.062;2022-08-19T09:32:51;10.00;;;8.90;;
18280;SDS011;9266;51.132;17.062;2022-08-19T09:35:20;14.05;;;9.07;;
18280;SDS011;9266;51.132;17.062;2022-08-19T09:37:48;9.70;;;8.63;;
18280;SDS011;9266;51.132;17.062;2022-08-19T09:40:16;10.82;;;8.38;;
18280;SDS011;9266;51.132;17.062;2022-08-19T09:42:45;11.40;;;8.68;;
18280;SDS011;9266;51.132;17.062;2022-08-19T09:45:12;10.00;;;8.88;;
18280;SDS011;9266;51.132;17.062;2022-08-19T09:47:41;15.23;;;9.50;;
18280;SDS011;9266;51.132;17.062;2022-08-19T09:50:09;12.95;;;8.82;;
18280;SDS011;9266;51.132;17.062;2022-08-19T09:52:38;11.13;;;9.35;;
18280;SDS011;9266;51.132;17.062;2022-08-19T09:55:08;14.13;;;9.05;;
18280;SDS011;9266;51.132;17.062;2022-08-19T09:57:36;12.68;;;9.88;;
18280;SDS011;9266;51.132;17.062;2022-08-19T10:00:06;12.90;;;9.23;;
18280;SDS011;9266;51.132;17.062;2022-08-19T10:02:35;12.48;;;9.25;;
18280;SDS011;9266;51.132;17.062;2022-08-19T10:05:04;12.48;;;8.90;;
18280;SDS011;9266;51.132;17.062;2022-08-19T10:07:48;12.45;;;9.52;;
18280;SDS011;9266;51.132;17.062;2022-08-19T10:10:16;10.30;;;9.30;;
18280;SDS011;9266;51.132;17.062;2022-08-19T10:12:44;10.55;;;9.00;;
18280;SDS011;9266;51.132;17.062;2022-08-19T10:15:12;12.93;;;10.48;;
18280;SDS011;9266;51.132;17.062;2022-08-19T10:17:40;12.05;;;8.85;;
18280;SDS011;9266;51.132;17.062;2022-08-19T10:20:09;15.32;;;8.88;;
18280;SDS011;9266;51.132;17.062;2022-08-19T10:22:36;9.88;;;8.65;;
18280;SDS011;9266;51.132;17.062;2022-08-19T10:25:04;11.23;;;8.32;;
18280;SDS011;9266;51.132;17.062;2022-08-19T10:27:32;12.82;;;7.90;;
18280;SDS011;9266;51.132;17.062;2022-08-19T10:29:59;12.75;;;7.72;;
18280;SDS011;9266;51.132;17.062;2022-08-19T10:32:26;9.98;;;7.93;;
18280;SDS011;9266;51.132;17.062;2022-08-19T10:34:54;12.02;;;7.25;;
18280;SDS011;9266;51.132;17.062;2022-08-19T10:37:22;10.00;;;7.70;;
18280;SDS011;9266;51.132;17.062;2022-08-19T10:39:50;10.65;;;7.85;;
18280;SDS011;9266;51.132;17.062;2022-08-19T10:42:17;12.32;;;7.70;;
18280;SDS011;9266;51.132;17.062;2022-08-19T10:44:44;14.27;;;7.68;;
18280;SDS011;9266;51.132;17.062;2022-08-19T10:47:13;11.38;;;8.00;;
18280;SDS011;9266;51.132;17.062;2022-08-19T10:49:40;13.20;;;7.85;;
18280;SDS011;9266;51.132;17.062;2022-08-19T10:52:27;9.60;;;7.40;;
18280;SDS011;9266;51.132;17.062;2022-08-19T10:55:03;12.32;;;7.50;;
18280;SDS011;9266;51.132;17.062;2022-08-19T10:57:49;7.78;;;6.38;;
18280;SDS011;9266;51.132;17.062;2022-08-19T11:00:19;10.40;;;7.95;;
18280;SDS011;9266;51.132;17.062;2022-08-19T11:02:47;10.32;;;6.75;;
18280;SDS011;9266;51.132;17.062;2022-08-19T11:05:19;8.15;;;6.53;;
18280;SDS011;9266;51.132;17.062;2022-08-19T11:07:56;11.85;;;6.93;;
18280;SDS011;9266;51.132;17.062;2022-08-19T11:10:42;16.45;;;8.48;;
18280;SDS011;9266;51.132;17.062;2022-08-19T11:13:16;9.73;;;6.85;;
18280;SDS011;9266;51.132;17.062;2022-08-19T11:16:06;7.63;;;6.28;;
18280;SDS011;9266;51.132;17.062;2022-08-19T11:18:57;8.20;;;6.45;;
18280;SDS011;9266;51.132;17.062;2022-08-19T11:21:28;9.98;;;6.07;;
18280;SDS011;9266;51.132;17.062;2022-08-19T11:24:15;8.95;;;6.78;;
18280;SDS011;9266;51.132;17.062;2022-08-19T11:26:49;7.80;;;6.28;;
18280;SDS011;9266;51.132;17.062;2022-08-19T11:29:40;10.70;;;6.38;;
18280;SDS011;9266;51.132;17.062;2022-08-19T11:32:07;8.85;;;7.07;;
18280;SDS011;9266;51.132;17.062;2022-08-19T11:34:37;12.70;;;7.20;;
18280;SDS011;9266;51.132;17.062;2022-08-19T11:37:06;10.43;;;7.05;;
18280;SDS011;9266;51.132;17.062;2022-08-19T11:39:40;10.48;;;5.97;;
18280;SDS011;9266;51.132;17.062;2022-08-19T11:42:12;10.05;;;5.50;;
18280;SDS011;9266;51.132;17.062;2022-08-19T11:44:53;7.18;;;5.75;;
18280;SDS011;9266;51.132;17.062;2022-08-19T11:47:20;9.52;;;5.60;;
18280;SDS011;9266;51.132;17.062;2022-08-19T11:49:49;6.40;;;5.60;;
18280;SDS011;9266;51.132;17.062;2022-08-19T11:52:18;8.00;;;6.10;;
18280;SDS011;9266;51.132;17.062;2022-08-19T11:54:48;8.73;;;5.75;;
18280;SDS011;9266;51.132;17.062;2022-08-19T11:57:18;7.85;;;5.30;;
18280;SDS011;9266;51.132;17.062;2022-08-19T11:59:50;9.32;;;5.70;;
18280;SDS011;9266;51.132;17.062;2022-08-19T12:02:19;4.90;;;4.28;;
18280;SDS011;9266;51.132;17.062;2022-08-19T12:04:48;6.03;;;4.68;;
18280;SDS011;9266;51.132;17.062;2022-08-19T12:07:15;9.10;;;4.68;;
18280;SDS011;9266;51.132;17.062;2022-08-19T12:09:46;6.93;;;4.55;;
18280;SDS011;9266;51.132;17.062;2022-08-19T12:12:18;10.80;;;5.10;;
18280;SDS011;9266;51.132;17.062;2022-08-19T12:14:46;6.57;;;4.90;;
18280;SDS011;9266;51.132;17.062;2022-08-19T12:17:13;8.43;;;4.50;;
18280;SDS011;9266;51.132;17.062;2022-08-19T12:19:41;8.23;;;4.25;;
18280;SDS011;9266;51.132;17.062;2022-08-19T12:22:09;6.70;;;4.30;;
18280;SDS011;9266;51.132;17.062;2022-08-19T12:24:36;5.63;;;4.05;;
18280;SDS011;9266;51.132;17.062;2022-08-19T12:27:18;6.75;;;4.25;;
18280;SDS011;9266;51.132;17.062;2022-08-19T12:30:10;6.07;;;4.05;;
18280;SDS011;9266;51.132;17.062;2022-08-19T12:32:40;9.23;;;4.45;;
18280;SDS011;9266;51.132;17.062;2022-08-19T12:35:16;8.23;;;4.60;;
18280;SDS011;9266;51.132;17.062;2022-08-19T12:38:11;7.75;;;4.90;;
18280;SDS011;9266;51.132;17.062;2022-08-19T12:40:42;8.55;;;4.85;;
18280;SDS011;9266;51.132;17.062;2022-08-19T12:43:14;5.97;;;4.28;;
18280;SDS011;9266;51.132;17.062;2022-08-19T12:45:54;6.68;;;4.30;;
18280;SDS011;9266;51.132;17.062;2022-08-19T12:48:22;8.82;;;4.65;;
18280;SDS011;9266;51.132;17.062;2022-08-19T12:50:57;6.90;;;4.38;;
18280;SDS011;9266;51.132;17.062;2022-08-19T12:53:27;5.25;;;4.20;;
18280;SDS011;9266;51.132;17.062;2022-08-19T12:55:54;6.20;;;4.38;;
18280;SDS011;9266;51.132;17.062;2022-08-19T12:58:26;9.68;;;4.55;;
18280;SDS011;9266;51.132;17.062;2022-08-19T13:00:53;6.10;;;4.18;;
18280;SDS011;9266;51.132;17.062;2022-08-19T13:03:21;5.88;;;4.45;;
18280;SDS011;9266;51.132;17.062;2022-08-19T13:05:54;5.90;;;4.15;;
18280;SDS011;9266;51.132;17.062;2022-08-19T13:08:21;7.25;;;4.20;;
18280;SDS011;9266;51.132;17.062;2022-08-19T13:10:52;7.78;;;4.15;;
18280;SDS011;9266;51.132;17.062;2022-08-19T13:13:20;7.43;;;4.40;;
18280;SDS011;9266;51.132;17.062;2022-08-19T13:15:52;9.45;;;4.35;;
18280;SDS011;9266;51.132;17.062;2022-08-19T13:18:30;8.20;;;4.65;;
18280;SDS011;9266;51.132;17.062;2022-08-19T13:21:03;10.98;;;4.72;;
18280;SDS011;9266;51.132;17.062;2022-08-19T13:23:31;6.32;;;4.05;;
18280;SDS011;9266;51.132;17.062;2022-08-19T13:26:01;8.23;;;4.00;;
18280;SDS011;9266;51.132;17.062;2022-08-19T13:28:32;8.93;;;4.38;;
18280;SDS011;9266;51.132;17.062;2022-08-19T13:31:16;10.50;;;4.60;;
18280;SDS011;9266;51.132;17.062;2022-08-19T13:34:01;6.85;;;4.15;;
18280;SDS011;9266;51.132;17.062;2022-08-19T13:36:29;7.05;;;3.78;;
18280;SDS011;9266;51.132;17.062;2022-08-19T13:38:57;9.98;;;4.90;;
18280;SDS011;9266;51.132;17.062;2022-08-19T13:41:23;11.35;;;5.28;;
18280;SDS011;9266;51.132;17.062;2022-08-19T13:43:53;8.35;;;4.20;;
18280;SDS011;9266;51.132;17.062;2022-08-19T14:43:32;7.30;;;4.72;;
18280;SDS011;9266;51.132;17.062;2022-08-19T14:46:14;6.45;;;4.80;;
18280;SDS011;9266;51.132;17.062;2022-08-19T14:48:56;7.30;;;4.95;;
18280;SDS011;9266;51.132;17.062;2022-08-19T14:51:37;5.57;;;4.30;;
18280;SDS011;9266;51.132;17.062;2022-08-19T14:54:18;5.13;;;4.22;;
18280;SDS011;9266;51.132;17.062;2022-08-19T14:56:59;8.15;;;5.03;;
18280;SDS011;9266;51.132;17.062;2022-08-19T15:08:59;5.22;;;4.50;;
18280;SDS011;9266;51.132;17.062;2022-08-19T15:11:40;7.10;;;5.22;;
18280;SDS011;9266;51.132;17.062;2022-08-19T15:14:09;8.07;;;6.10;;
18280;SDS011;9266;51.132;17.062;2022-08-19T15:16:50;10.60;;;6.55;;
18280;SDS011;9266;51.132;17.062;2022-08-19T15:19:33;9.15;;;7.60;;
18280;SDS011;9266;51.132;17.062;2022-08-19T15:53:11;15.23;;;13.70;;
18280;SDS011;9266;51.132;17.062;2022-08-19T15:55:51;15.98;;;13.25;;
18280;SDS011;9266;51.132;17.062;2022-08-19T15:58:32;15.32;;;13.82;;
18280;SDS011;9266;51.132;17.062;2022-08-19T16:01:17;15.60;;;13.52;;
18280;SDS011;9266;51.132;17.062;2022-08-19T17:20:57;17.15;;;15.48;;
18280;SDS011;9266;51.132;17.062;2022-08-19T17:23:41;17.05;;;15.35;;
18280;SDS011;9266;51.132;17.062;2022-08-19T17:26:24;16.13;;;14.50;;
18280;SDS011;9266;51.132;17.062;2022-08-19T17:29:05;16.35;;;14.60;;
18280;SDS011;9266;51.132;17.062;2022-08-19T17:31:57;17.17;;;15.48;;
18280;SDS011;9266;51.132;17.062;2022-08-19T17:34:38;16.65;;;14.85;;
18280;SDS011;9266;51.132;17.062;2022-08-19T22:36:31;17.13;;;11.70;;
18280;SDS011;9266;51.132;17.062;2022-08-19T22:39:12;15.67;;;11.27;;
18280;SDS011;9266;51.132;17.062;2022-08-19T22:41:52;14.57;;;11.50;;
18280;SDS011;9266;51.132;17.062;2022-08-19T22:44:35;17.23;;;11.23;;
18280;SDS011;9266;51.132;17.062;2022-08-19T22:47:17;11.63;;;10.00;;